createdAt,value
2022-12-04T00:01:41.232Z,26.15
2022-12-04T00:04:15.105Z,24.02
2022-12-04T00:06:49.522Z,26.23
2022-12-04T00:09:27.999Z,25.70
2022-12-04T00:12:03.009Z,26.42
2022-12-04T00:15:00.534Z,21.05
2022-12-04T00:17:30.133Z,25.42
2022-12-04T00:20:03.750Z,23.65
2022-12-04T00:22:37.363Z,23.80
2022-12-04T00:25:11.281Z,25.00
2022-12-04T00:27:46.343Z,24.10
2022-12-04T00:30:19.942Z,21.52
2022-12-04T00:32:53.623Z,23.17
2022-12-04T00:35:27.627Z,21.60
2022-12-04T00:40:34.377Z,20.75
2022-12-04T00:43:09.335Z,21.67
2022-12-04T00:45:42.853Z,23.90
2022-12-04T00:48:16.448Z,21.00
2022-12-04T00:50:50.001Z,24.58
2022-12-04T00:53:23.794Z,22.60
2022-12-04T00:55:57.449Z,23.45
2022-12-04T00:58:32.915Z,25.27
2022-12-04T01:01:09.028Z,24.17
2022-12-04T01:03:43.305Z,23.33
2022-12-04T01:06:22.034Z,23.15
2022-12-04T01:08:56.768Z,21.98
2022-12-04T01:11:31.343Z,23.02
2022-12-04T01:14:06.367Z,22.02
2022-12-04T01:16:41.420Z,22.02
2022-12-04T01:19:15.018Z,22.02
2022-12-04T01:21:48.576Z,22.92
2022-12-04T01:24:22.067Z,24.13
2022-12-04T01:26:55.664Z,24.08
2022-12-04T01:29:30.629Z,20.90
2022-12-04T01:32:04.270Z,21.08
2022-12-04T01:34:38.063Z,19.20
2022-12-04T01:37:11.622Z,23.58
2022-12-04T01:39:45.117Z,24.88
2022-12-04T01:42:18.863Z,22.75
2022-12-04T01:45:25.325Z,24.17
2022-12-04T01:48:10.813Z,24.25
2022-12-04T01:50:45.769Z,22.40
2022-12-04T01:53:20.439Z,23.48
2022-12-04T01:55:54.681Z,21.73
2022-12-04T01:58:33.067Z,24.33
2022-12-04T02:01:09.287Z,23.38
2022-12-04T02:03:44.677Z,22.05
2022-12-04T02:06:18.241Z,24.80
2022-12-04T02:08:51.857Z,22.23
2022-12-04T02:11:31.678Z,20.88
2022-12-04T02:14:16.483Z,21.98
2022-12-04T02:16:57.819Z,22.23
2022-12-04T02:20:15.992Z,21.50
2022-12-04T02:23:29.704Z,20.48
2022-12-04T02:26:13.191Z,21.17
2022-12-04T02:28:51.234Z,21.75
2022-12-04T02:31:32.543Z,20.40
2022-12-04T02:34:11.542Z,21.42
2022-12-04T02:36:51.542Z,23.30
2022-12-04T02:39:30.366Z,22.85
2022-12-04T02:42:09.492Z,21.35
2022-12-04T02:44:49.135Z,22.52
2022-12-04T02:47:25.221Z,21.20
2022-12-04T02:50:01.445Z,20.75
2022-12-04T02:52:38.278Z,18.40
2022-12-04T02:55:17.829Z,22.20
2022-12-04T02:57:56.456Z,19.70
2022-12-04T03:00:33.046Z,21.10
2022-12-04T03:03:11.188Z,22.50
2022-12-04T03:05:52.370Z,21.15
2022-12-04T03:08:30.447Z,20.90
2022-12-04T03:11:04.811Z,21.00
2022-12-04T03:13:42.944Z,22.08
2022-12-04T03:16:22.228Z,21.42
2022-12-04T03:19:02.498Z,21.23
2022-12-04T03:21:40.226Z,20.65
2022-12-04T03:24:19.059Z,22.85
2022-12-04T03:26:59.265Z,21.00
2022-12-04T03:29:41.206Z,23.25
2022-12-04T03:32:23.119Z,22.55
2022-12-04T03:35:03.334Z,21.95
2022-12-04T03:37:42.418Z,23.30
2022-12-04T03:40:23.395Z,22.17
2022-12-04T03:43:04.707Z,21.15
2022-12-04T03:45:45.396Z,22.50
2022-12-04T03:48:23.781Z,23.00
2022-12-04T03:51:05.857Z,21.33
2022-12-04T03:53:43.129Z,23.13
2022-12-04T03:56:19.222Z,23.08
2022-12-04T03:58:57.207Z,22.13
2022-12-04T04:01:35.771Z,16.00
2022-12-04T04:04:15.783Z,20.42
2022-12-04T04:06:54.758Z,20.85
2022-12-04T04:09:34.143Z,21.98
2022-12-04T04:12:13.351Z,21.38
2022-12-04T04:15:09.836Z,23.05
2022-12-04T04:18:02.651Z,22.63
2022-12-04T04:21:10.035Z,21.20
2022-12-04T04:24:05.533Z,20.77
2022-12-04T04:26:44.400Z,20.52
2022-12-04T04:29:17.875Z,21.45
2022-12-04T04:32:01.756Z,20.77
2022-12-04T04:34:49.001Z,21.60
2022-12-04T04:37:31.498Z,21.30
2022-12-04T04:40:13.951Z,20.70
2022-12-04T04:42:52.701Z,20.88
2022-12-04T04:45:32.985Z,21.52
2022-12-04T04:48:11.585Z,22.73
2022-12-04T04:50:46.586Z,23.08
2022-12-04T04:53:28.788Z,22.08
2022-12-04T04:56:04.398Z,18.20
2022-12-04T04:58:38.049Z,17.65
2022-12-04T05:01:14.579Z,18.75
2022-12-04T05:03:48.331Z,18.48
2022-12-04T05:06:21.959Z,18.17
2022-12-04T05:08:56.903Z,18.52
2022-12-04T05:11:30.469Z,19.00
2022-12-04T05:14:03.892Z,16.48
2022-12-04T05:16:37.516Z,19.15
2022-12-04T05:19:42.698Z,17.17
2022-12-04T05:22:16.147Z,15.20
2022-12-04T05:24:51.059Z,15.63
2022-12-04T05:27:25.637Z,15.27
2022-12-04T05:30:00.028Z,15.63
2022-12-04T05:32:33.556Z,13.98
2022-12-04T05:35:11.156Z,16.02
2022-12-04T05:37:45.712Z,14.85
2022-12-04T05:45:26.865Z,13.02
2022-12-04T05:48:00.268Z,14.38
2022-12-04T05:50:33.683Z,14.43
2022-12-04T05:53:07.077Z,15.98
2022-12-04T05:55:41.982Z,16.75
2022-12-04T05:58:15.488Z,15.75
2022-12-04T06:00:48.914Z,18.85
2022-12-04T06:03:22.714Z,18.65
2022-12-04T06:05:56.230Z,17.02
2022-12-04T06:08:29.724Z,16.70
2022-12-04T06:11:11.754Z,15.88
2022-12-04T06:13:46.712Z,17.20
2022-12-04T06:16:23.087Z,18.33
2022-12-04T06:18:58.038Z,15.52
2022-12-04T06:21:33.294Z,17.58
2022-12-04T06:24:07.830Z,16.20
2022-12-04T06:27:03.851Z,17.42
2022-12-04T06:29:36.414Z,16.17
2022-12-04T06:32:09.955Z,17.73
2022-12-04T06:34:43.529Z,14.50
2022-12-04T06:37:18.010Z,16.55
2022-12-04T06:39:51.610Z,15.85
2022-12-04T06:42:26.483Z,16.73
2022-12-04T06:44:59.947Z,15.77
2022-12-04T06:47:33.478Z,16.67
2022-12-04T06:50:08.311Z,15.05
2022-12-04T06:52:41.741Z,15.15
2022-12-04T06:55:15.197Z,15.38
2022-12-04T06:57:50.049Z,16.95
2022-12-04T07:00:23.650Z,14.88
2022-12-04T07:02:57.385Z,12.77
2022-12-04T07:05:30.939Z,13.80
2022-12-04T07:08:04.527Z,13.63
2022-12-04T07:10:38.595Z,16.13
2022-12-04T07:13:13.564Z,13.65
2022-12-04T07:15:47.047Z,14.43
2022-12-04T07:18:27.627Z,14.90
2022-12-04T07:21:01.537Z,14.30
2022-12-04T07:23:35.031Z,15.40
2022-12-04T07:26:10.020Z,16.48
2022-12-04T07:28:45.837Z,15.38
2022-12-04T07:31:20.660Z,16.73
2022-12-04T07:33:54.814Z,11.95
2022-12-04T07:36:28.756Z,14.13
2022-12-04T07:39:02.282Z,14.75
2022-12-04T07:41:35.788Z,15.57
2022-12-04T07:44:14.883Z,16.08
2022-12-04T07:46:48.311Z,16.55
2022-12-04T07:49:21.789Z,17.20
2022-12-04T07:51:55.367Z,16.95
2022-12-04T07:54:29.022Z,15.40
2022-12-04T07:57:02.511Z,15.07
2022-12-04T07:59:37.537Z,15.85
2022-12-04T08:02:11.050Z,16.17
2022-12-04T08:04:44.602Z,15.45
2022-12-04T08:07:20.445Z,17.15
2022-12-04T08:09:54.258Z,16.00
2022-12-04T08:12:28.130Z,16.98
2022-12-04T08:15:03.176Z,16.58
2022-12-04T08:17:36.763Z,15.10
2022-12-04T08:20:10.813Z,15.27
2022-12-04T08:25:19.818Z,19.33
2022-12-04T08:27:53.367Z,16.48
2022-12-04T08:30:28.433Z,16.23
2022-12-04T08:33:02.010Z,15.82
2022-12-04T08:35:35.833Z,17.55
2022-12-04T08:38:09.412Z,14.98
2022-12-04T08:40:42.835Z,14.27
2022-12-04T08:43:17.322Z,16.77
2022-12-04T08:45:58.520Z,12.40
2022-12-04T08:48:32.352Z,13.05
2022-12-04T08:51:08.245Z,14.75
2022-12-04T08:53:41.792Z,14.68
2022-12-04T08:56:15.552Z,14.70
2022-12-04T08:58:49.081Z,14.18
2022-12-04T09:01:24.081Z,12.07
2022-12-04T09:04:00.617Z,13.68
2022-12-04T09:06:34.332Z,14.38
2022-12-04T09:09:07.889Z,12.32
2022-12-04T09:11:41.435Z,12.38
2022-12-04T09:14:14.936Z,13.10
2022-12-04T09:16:49.816Z,14.20
2022-12-04T09:19:23.361Z,14.20
2022-12-04T09:21:56.907Z,13.80
2022-12-04T09:24:31.617Z,13.80
2022-12-04T09:27:08.621Z,14.25
2022-12-04T09:29:45.067Z,15.02
2022-12-04T09:32:20.152Z,13.70
2022-12-04T09:34:53.691Z,14.00
2022-12-04T09:37:27.474Z,14.13
2022-12-04T09:40:01.197Z,13.88
2022-12-04T09:42:43.722Z,13.90
2022-12-04T09:45:20.317Z,14.73
2022-12-04T09:47:58.274Z,14.63
2022-12-04T09:50:38.804Z,13.93
2022-12-04T09:53:18.321Z,14.25
2022-12-04T09:55:57.401Z,14.35
2022-12-04T09:58:40.817Z,13.35
2022-12-04T10:01:23.317Z,14.07
2022-12-04T10:04:04.217Z,13.80
2022-12-04T10:06:45.665Z,14.45
2022-12-04T10:09:24.248Z,13.80
2022-12-04T10:12:09.175Z,14.50
2022-12-04T10:15:05.460Z,14.52
2022-12-04T10:18:05.282Z,15.32
2022-12-04T10:21:03.929Z,14.77
2022-12-04T10:23:51.503Z,14.02
2022-12-04T10:26:30.430Z,16.45
2022-12-04T10:29:08.177Z,17.35
2022-12-04T10:31:45.849Z,15.10
2022-12-04T10:34:24.411Z,13.25
2022-12-04T10:37:03.195Z,15.55
2022-12-04T10:39:42.931Z,15.68
2022-12-04T10:42:25.515Z,16.52
2022-12-04T10:44:59.173Z,14.88
2022-12-04T10:47:32.727Z,14.75
2022-12-04T10:50:16.202Z,17.42
2022-12-04T10:52:51.573Z,18.38
2022-12-04T10:55:33.327Z,16.35
2022-12-04T10:58:17.708Z,17.13
2022-12-04T11:03:36.318Z,15.27
2022-12-04T11:06:11.845Z,15.48
2022-12-04T11:08:52.101Z,17.13
2022-12-04T11:11:28.553Z,18.10
2022-12-04T11:14:06.308Z,16.15
2022-12-04T11:16:44.629Z,16.42
2022-12-04T11:19:26.570Z,15.23
2022-12-04T11:22:05.773Z,16.45
2022-12-04T11:24:42.902Z,20.25
2022-12-04T11:27:22.328Z,20.75
2022-12-04T11:29:56.763Z,21.48
2022-12-04T11:32:34.178Z,19.98
2022-12-04T11:35:17.644Z,17.92
2022-12-04T11:37:57.283Z,16.87
2022-12-04T11:40:32.252Z,17.38
2022-12-04T11:43:07.833Z,20.65
2022-12-04T11:45:42.043Z,18.23
2022-12-04T11:48:18.383Z,17.02
2022-12-04T11:50:59.548Z,15.85
2022-12-04T11:53:44.377Z,16.23
2022-12-04T11:56:27.038Z,17.15
2022-12-04T11:59:25.977Z,15.65
2022-12-04T12:02:11.073Z,16.67
2022-12-04T12:05:07.809Z,16.67
2022-12-04T12:07:50.162Z,15.88
2022-12-04T12:10:30.457Z,16.88
2022-12-04T12:13:13.714Z,15.02
2022-12-04T12:15:57.953Z,15.77
2022-12-04T12:18:48.123Z,14.55
2022-12-04T12:21:25.660Z,16.83
2022-12-04T12:24:11.046Z,16.70
2022-12-04T12:26:52.336Z,17.38
2022-12-04T12:29:48.669Z,15.77
2022-12-04T12:32:39.880Z,17.33
2022-12-04T12:35:28.319Z,17.73
2022-12-04T12:38:04.486Z,16.30
2022-12-04T12:40:43.344Z,17.27
2022-12-04T12:43:23.573Z,16.52
2022-12-04T12:46:03.397Z,17.80
2022-12-04T12:48:44.291Z,18.23
2022-12-04T12:51:30.461Z,18.92
2022-12-04T12:54:17.084Z,19.83
2022-12-04T12:56:55.388Z,17.70
2022-12-04T12:59:29.478Z,17.55
2022-12-04T13:04:44.499Z,17.45
2022-12-04T13:07:30.716Z,15.57
2022-12-04T13:10:09.178Z,16.23
2022-12-04T13:12:46.810Z,16.55
2022-12-04T13:15:25.256Z,14.82
2022-12-04T13:18:00.962Z,16.92
2022-12-04T13:20:42.776Z,17.45
2022-12-04T13:23:31.177Z,15.75
2022-12-04T13:26:12.319Z,15.70
2022-12-04T13:28:55.822Z,16.60
2022-12-04T13:31:39.312Z,16.40
2022-12-04T13:34:55.551Z,15.45
2022-12-04T13:37:43.512Z,14.57
2022-12-04T13:40:42.337Z,13.68
2022-12-04T13:43:20.684Z,13.32
2022-12-04T13:45:57.243Z,17.80
2022-12-04T13:48:37.786Z,14.77
2022-12-04T13:51:35.343Z,16.60
2022-12-04T13:54:31.036Z,14.73
2022-12-04T13:57:22.565Z,18.30
2022-12-04T14:00:08.272Z,14.73
2022-12-04T14:02:53.762Z,14.70
2022-12-04T14:05:30.059Z,13.27
2022-12-04T14:08:08.717Z,14.52
2022-12-04T14:10:42.198Z,14.10
2022-12-04T14:13:21.538Z,13.18
2022-12-04T14:16:05.697Z,16.00
2022-12-04T14:18:39.889Z,13.88
2022-12-04T14:21:13.617Z,13.57
2022-12-04T14:23:49.079Z,14.50
2022-12-04T14:26:37.293Z,14.40
2022-12-04T14:29:39.093Z,14.77
2022-12-04T14:32:17.896Z,14.27
2022-12-04T14:34:52.095Z,14.48
2022-12-04T14:37:30.007Z,13.70
2022-12-04T14:40:07.556Z,13.65
2022-12-04T14:42:41.831Z,14.77
2022-12-04T14:45:23.444Z,14.32
2022-12-04T14:48:19.131Z,14.35
2022-12-04T14:51:02.739Z,17.42
2022-12-04T14:53:43.658Z,14.98
2022-12-04T14:56:32.674Z,14.25
2022-12-04T14:59:10.496Z,13.52
2022-12-04T15:01:44.334Z,13.25
2022-12-04T15:04:25.015Z,14.18
2022-12-04T15:07:00.932Z,14.98
2022-12-04T15:09:51.701Z,15.32
2022-12-04T15:12:36.675Z,17.00
2022-12-04T15:15:19.642Z,17.75
2022-12-04T15:18:01.234Z,19.33
2022-12-04T15:20:51.382Z,15.55
2022-12-04T15:23:32.698Z,14.88
2022-12-04T15:26:12.049Z,18.33
2022-12-04T15:28:51.076Z,18.70
2022-12-04T15:31:32.936Z,17.23
2022-12-04T15:34:14.917Z,19.35
2022-12-04T15:36:52.173Z,15.32
2022-12-04T15:39:34.314Z,13.77
2022-12-04T15:42:16.167Z,13.45
2022-12-04T15:45:01.440Z,12.32
2022-12-04T15:47:39.679Z,14.20
2022-12-04T15:50:33.415Z,12.65
2022-12-04T15:53:13.986Z,16.10
2022-12-04T15:55:51.475Z,13.77
2022-12-04T15:58:29.465Z,15.10
2022-12-04T16:01:10.276Z,13.55
2022-12-04T16:03:50.386Z,13.10
2022-12-04T16:06:26.077Z,14.15
2022-12-04T16:09:01.173Z,13.82
2022-12-04T16:11:44.173Z,14.77
2022-12-04T16:14:20.429Z,14.70
2022-12-04T16:17:05.536Z,16.08
2022-12-04T16:19:42.579Z,16.92
2022-12-04T16:22:20.385Z,15.52
2022-12-04T16:25:04.329Z,16.23
2022-12-04T16:27:39.295Z,14.90
2022-12-04T16:30:20.835Z,13.93
2022-12-04T16:32:55.877Z,12.60
2022-12-04T16:35:31.333Z,14.05
2022-12-04T16:38:05.016Z,13.77
2022-12-04T16:40:38.831Z,14.80
2022-12-04T16:45:49.287Z,13.25
2022-12-04T16:48:24.512Z,13.00
2022-12-04T16:50:58.105Z,13.38
2022-12-04T16:53:31.908Z,13.70
2022-12-04T16:56:05.859Z,15.77
2022-12-04T16:58:39.503Z,15.07
2022-12-04T17:01:22.877Z,16.90
2022-12-04T17:03:58.069Z,14.93
2022-12-04T17:06:34.853Z,16.33
2022-12-04T17:09:09.173Z,17.77
2022-12-04T17:11:43.542Z,20.98
2022-12-04T17:14:19.970Z,17.73
2022-12-04T17:16:55.224Z,17.25
2022-12-04T17:19:30.384Z,16.42
2022-12-04T17:22:04.014Z,17.98
2022-12-04T17:24:43.574Z,15.30
2022-12-04T17:27:29.580Z,18.73
2022-12-04T17:30:04.830Z,15.25
2022-12-04T17:32:56.340Z,13.98
2022-12-04T17:35:31.428Z,14.40
2022-12-04T17:38:07.722Z,13.48
2022-12-04T17:40:50.727Z,14.38
2022-12-04T17:43:41.943Z,14.02
2022-12-04T17:46:21.793Z,14.02
2022-12-04T17:49:11.295Z,16.25
2022-12-04T17:51:47.096Z,14.20
2022-12-04T17:54:25.403Z,16.13
2022-12-04T17:57:00.022Z,17.33
2022-12-04T17:59:42.700Z,16.65
2022-12-04T18:02:20.703Z,17.27
2022-12-04T18:04:58.540Z,17.20
2022-12-04T18:07:46.316Z,14.88
2022-12-04T18:10:20.240Z,16.58
2022-12-04T18:15:28.975Z,16.27
2022-12-04T18:18:11.820Z,17.08
2022-12-04T18:20:53.381Z,15.68
2022-12-04T18:23:38.872Z,15.52
2022-12-04T18:26:13.478Z,14.98
2022-12-04T18:29:09.185Z,15.57
2022-12-04T18:31:53.031Z,17.05
2022-12-04T18:35:04.115Z,16.88
2022-12-04T18:37:38.302Z,16.42
2022-12-04T18:40:15.764Z,14.80
2022-12-04T18:42:55.159Z,14.75
2022-12-04T18:45:33.763Z,14.75
2022-12-04T18:48:08.096Z,13.90
2022-12-04T18:50:44.211Z,14.32
2022-12-04T18:53:28.886Z,14.68
2022-12-04T18:56:04.706Z,14.70
2022-12-04T18:58:47.255Z,15.27
2022-12-04T19:01:27.266Z,13.70
2022-12-04T19:04:10.144Z,15.32
2022-12-04T19:06:57.101Z,13.73
2022-12-04T19:10:09.230Z,16.40
2022-12-04T19:12:39.487Z,13.85
2022-12-04T19:15:13.394Z,18.25
2022-12-04T19:20:22.858Z,14.90
2022-12-04T19:23:29.419Z,16.90
2022-12-04T19:26:03.947Z,14.48
2022-12-04T19:28:41.720Z,15.52
2022-12-04T19:31:24.395Z,15.18
2022-12-04T19:34:01.698Z,14.48
2022-12-04T19:36:39.493Z,15.23
2022-12-04T19:39:16.711Z,14.80
2022-12-04T19:41:59.862Z,14.10
2022-12-04T19:44:51.469Z,14.70
2022-12-04T19:47:31.527Z,15.23
2022-12-04T19:50:07.110Z,14.93
2022-12-04T19:52:52.870Z,14.95
2022-12-04T19:55:27.872Z,14.93
2022-12-04T19:58:06.915Z,14.57
2022-12-04T20:00:47.005Z,12.80
2022-12-04T20:03:25.291Z,14.40
2022-12-04T20:06:07.344Z,13.57
2022-12-04T20:08:42.296Z,14.70
2022-12-04T20:11:20.329Z,13.57
2022-12-04T20:13:59.986Z,13.85
2022-12-04T20:16:41.043Z,13.18
2022-12-04T20:19:21.497Z,14.32
2022-12-04T20:21:59.429Z,13.10
2022-12-04T20:24:36.563Z,14.10
2022-12-04T20:27:11.480Z,14.57
2022-12-04T20:29:46.433Z,13.82
2022-12-04T20:32:23.041Z,13.57
2022-12-04T20:35:04.422Z,13.75
2022-12-04T20:37:39.457Z,12.95
2022-12-04T20:40:25.505Z,13.05
2022-12-04T20:43:00.404Z,14.45
2022-12-04T20:45:39.036Z,12.98
2022-12-04T20:48:20.593Z,12.73
2022-12-04T20:50:57.481Z,15.00
2022-12-04T20:53:37.672Z,15.02
2022-12-04T20:56:22.513Z,14.80
2022-12-04T20:59:04.937Z,14.65
2022-12-04T21:01:40.851Z,13.75
2022-12-04T21:04:19.237Z,14.05
2022-12-04T21:07:00.879Z,14.52
2022-12-04T21:09:37.676Z,14.43
2022-12-04T21:12:27.551Z,13.77
2022-12-04T21:15:21.966Z,14.43
2022-12-04T21:18:04.663Z,14.65
2022-12-04T21:20:40.170Z,13.82
2022-12-04T21:23:19.766Z,12.68
2022-12-04T21:25:57.046Z,15.32
2022-12-04T21:28:31.461Z,14.82
2022-12-04T21:31:07.191Z,15.77
2022-12-04T21:33:40.995Z,16.70
2022-12-04T21:36:15.988Z,14.18
2022-12-04T21:38:49.835Z,15.27
2022-12-04T21:41:41.410Z,15.38
2022-12-04T21:44:17.297Z,14.60
2022-12-04T21:46:53.615Z,14.15
2022-12-04T21:49:29.936Z,14.93
2022-12-04T21:52:07.416Z,13.82
2022-12-04T21:54:41.097Z,14.05
2022-12-04T21:57:16.370Z,15.02
2022-12-04T21:59:53.655Z,14.02
2022-12-04T22:02:27.307Z,14.13
2022-12-04T22:05:01.081Z,12.60
2022-12-04T22:07:36.254Z,14.35
2022-12-04T22:10:12.542Z,13.82
2022-12-04T22:12:50.312Z,13.32
2022-12-04T22:15:24.510Z,14.40
2022-12-04T22:17:58.233Z,13.82
2022-12-04T22:20:31.933Z,13.43
2022-12-04T22:23:06.918Z,14.43
2022-12-04T22:25:42.401Z,13.88
2022-12-04T22:28:16.214Z,13.90
2022-12-04T22:30:52.040Z,14.07
2022-12-04T22:33:25.740Z,15.30
2022-12-04T22:38:58.729Z,13.98
2022-12-04T22:41:33.583Z,14.57
2022-12-04T22:44:10.141Z,14.40
2022-12-04T22:46:47.006Z,14.82
2022-12-04T22:49:20.858Z,15.90
2022-12-04T22:51:56.358Z,13.95
2022-12-04T22:54:31.429Z,15.60
2022-12-04T22:57:06.702Z,12.52
2022-12-04T22:59:40.263Z,14.80
2022-12-04T23:02:14.197Z,14.85
2022-12-04T23:07:20.905Z,12.63
2022-12-04T23:09:56.150Z,13.70
2022-12-04T23:12:29.994Z,14.43
2022-12-04T23:15:03.463Z,13.85
2022-12-04T23:17:37.143Z,13.88
2022-12-04T23:20:11.304Z,13.15
2022-12-04T23:22:45.034Z,14.13
2022-12-04T23:25:19.957Z,11.65
2022-12-04T23:27:53.718Z,13.23
2022-12-04T23:30:30.554Z,13.82
2022-12-04T23:33:06.217Z,13.30
2022-12-04T23:35:39.640Z,13.20
2022-12-04T23:38:13.174Z,12.82
2022-12-04T23:40:49.373Z,13.50
2022-12-04T23:43:24.733Z,14.63
2022-12-04T23:45:58.393Z,13.20
2022-12-04T23:48:32.102Z,13.80
2022-12-04T23:51:05.846Z,12.85
2022-12-04T23:53:39.416Z,11.75
2022-12-04T23:56:16.629Z,14.18
2022-12-04T23:58:52.276Z,13.15
